createdAt,value
2018-11-10T00:01:14.911Z,97887.27
2018-11-10T00:03:42.692Z,97889.14
2018-11-10T00:06:13.961Z,97887.13
2018-11-10T00:08:41.791Z,97885.26
2018-11-10T00:11:09.531Z,97891.30
2018-11-10T00:13:37.331Z,97887.13
2018-11-10T00:16:05.406Z,97896.53
2018-11-10T00:18:33.249Z,97898.69
2018-11-10T00:21:02.048Z,97889.13
2018-11-10T00:23:31.436Z,97893.50
2018-11-10T00:26:05.256Z,97886.97
2018-11-10T00:28:33.210Z,97888.46
2018-11-10T00:31:00.902Z,97887.12
2018-11-10T00:33:32.317Z,97888.31
2018-11-10T00:36:00.122Z,97888.81
2018-11-10T00:38:27.966Z,97880.91
2018-11-10T00:40:55.715Z,97875.20
2018-11-10T00:43:31.034Z,97869.67
2018-11-10T00:45:58.795Z,97869.33
2018-11-10T00:48:26.559Z,97866.97
2018-11-10T00:50:54.327Z,97857.92
2018-11-10T00:53:22.081Z,97853.23
2018-11-10T00:55:49.838Z,97847.33
2018-11-10T00:58:17.631Z,97836.45
2018-11-10T01:00:45.424Z,97847.02
2018-11-10T01:03:13.192Z,97844.82
2018-11-10T01:05:40.939Z,97840.30
2018-11-10T01:08:08.659Z,97843.16
2018-11-10T01:10:36.364Z,97845.32
2018-11-10T01:13:04.145Z,97850.53
2018-11-10T01:15:31.946Z,97847.53
2018-11-10T01:17:59.623Z,97843.81
2018-11-10T01:20:27.452Z,97837.95
2018-11-10T01:22:55.215Z,97833.23
2018-11-10T01:25:23.042Z,97825.36
2018-11-10T01:27:50.939Z,97826.05
2018-11-10T01:30:18.655Z,97820.86
2018-11-10T01:32:46.813Z,97816.14
2018-11-10T01:35:15.128Z,97812.93
2018-11-10T01:37:42.940Z,97807.91
2018-11-10T01:40:11.492Z,97811.09
2018-11-10T01:42:39.285Z,97811.27
2018-11-10T01:45:08.220Z,97809.74
2018-11-10T01:47:35.944Z,97804.06
2018-11-10T01:50:03.753Z,97803.89
2018-11-10T01:52:31.498Z,97810.11
2018-11-10T01:55:01.292Z,97801.36
2018-11-10T01:57:29.023Z,97796.67
2018-11-10T01:59:56.792Z,97780.40
2018-11-10T02:02:24.530Z,97771.84
2018-11-10T02:04:52.357Z,97773.69
2018-11-10T02:07:20.134Z,97768.50
2018-11-10T02:09:47.931Z,97771.19
2018-11-10T02:12:15.703Z,97760.94
2018-11-10T02:14:43.435Z,97754.56
2018-11-10T02:17:11.118Z,97746.36
2018-11-10T02:19:42.348Z,97748.55
2018-11-10T02:22:10.163Z,97746.17
2018-11-10T02:24:37.890Z,97738.61
2018-11-10T02:27:09.867Z,97729.22
2018-11-10T02:29:43.628Z,97710.26
2018-11-10T02:32:11.393Z,97705.73
2018-11-10T02:34:39.104Z,97714.13
2018-11-10T02:37:06.873Z,97726.22
2018-11-10T02:39:34.675Z,97728.06
2018-11-10T02:42:02.415Z,97741.14
2018-11-10T02:44:30.192Z,97743.33
2018-11-10T02:46:57.974Z,97736.95
2018-11-10T02:49:25.722Z,97742.80
2018-11-10T02:51:54.559Z,97750.55
2018-11-10T02:54:22.274Z,97753.91
2018-11-10T02:56:50.057Z,97753.38
2018-11-10T02:59:17.831Z,97748.36
2018-11-10T03:01:45.606Z,97742.83
2018-11-10T03:04:13.370Z,97726.72
2018-11-10T03:06:41.133Z,97714.63
2018-11-10T03:09:09.429Z,97729.73
2018-11-10T03:11:37.545Z,97756.28
2018-11-10T03:14:05.688Z,97753.59
2018-11-10T03:16:33.594Z,97757.77
2018-11-10T03:19:01.223Z,97767.17
2018-11-10T03:21:29.079Z,97758.30
2018-11-10T03:23:56.829Z,97739.34
2018-11-10T03:26:24.576Z,97749.56
2018-11-10T03:28:52.335Z,97755.61
2018-11-10T03:31:20.139Z,97742.72
2018-11-10T03:33:47.877Z,97736.66
2018-11-10T03:36:15.651Z,97731.13
2018-11-10T03:38:43.380Z,97709.97
2018-11-10T03:41:15.492Z,97700.57
2018-11-10T03:43:43.212Z,97715.68
2018-11-10T03:46:10.951Z,97719.36
2018-11-10T03:48:38.797Z,97718.55
2018-11-10T03:51:06.790Z,97707.28
2018-11-10T03:53:34.502Z,97715.68
2018-11-10T03:56:02.215Z,97713.31
2018-11-10T03:58:29.992Z,97725.77
2018-11-10T04:00:57.749Z,97740.03
2018-11-10T04:03:25.500Z,97736.16
2018-11-10T04:05:53.257Z,97737.34
2018-11-10T04:08:20.988Z,97743.38
2018-11-10T04:10:48.716Z,97744.19
2018-11-10T04:13:16.420Z,97729.77
2018-11-10T04:15:54.209Z,97733.30
2018-11-10T04:18:21.911Z,97723.23
2018-11-10T04:20:49.608Z,97710.50
2018-11-10T04:23:17.367Z,97699.08
2018-11-10T04:25:45.062Z,97684.30
2018-11-10T04:28:12.864Z,97689.49
2018-11-10T04:30:40.523Z,97695.55
2018-11-10T04:33:08.260Z,97685.30
2018-11-10T04:35:35.980Z,97672.91
2018-11-10T04:38:03.716Z,97678.59
2018-11-10T04:40:31.526Z,97678.09
2018-11-10T04:42:59.270Z,97681.63
2018-11-10T04:45:27.017Z,97682.44
2018-11-10T04:47:54.729Z,97678.94
2018-11-10T04:50:22.522Z,97682.44
2018-11-10T04:52:50.287Z,97669.70
2018-11-10T04:55:18.033Z,97660.95
2018-11-10T04:57:45.752Z,97664.48
2018-11-10T05:00:15.530Z,97654.41
2018-11-10T05:02:44.105Z,97651.91
2018-11-10T05:05:11.923Z,97640.16
2018-11-10T05:07:39.664Z,97640.10
2018-11-10T05:10:07.959Z,97629.67
2018-11-10T05:12:35.770Z,97625.08
2018-11-10T05:15:03.651Z,97613.30
2018-11-10T05:17:31.463Z,97626.19
2018-11-10T05:19:59.150Z,97653.70
2018-11-10T05:22:26.833Z,97662.94
2018-11-10T05:24:55.717Z,97670.14
2018-11-10T05:27:23.463Z,97670.10
2018-11-10T05:29:51.189Z,97660.41
2018-11-10T05:32:18.950Z,97663.73
2018-11-10T05:34:46.702Z,97664.85
2018-11-10T05:37:14.405Z,97669.13
2018-11-10T05:39:42.164Z,97661.48
2018-11-10T05:42:09.892Z,97663.98
2018-11-10T05:44:37.606Z,97666.80
2018-11-10T05:47:05.404Z,97660.77
2018-11-10T05:49:33.085Z,97657.44
2018-11-10T05:52:02.334Z,97643.69
2018-11-10T05:54:30.065Z,97640.20
2018-11-10T05:56:57.878Z,97642.53
2018-11-10T05:59:25.648Z,97642.67
2018-11-10T06:01:59.023Z,97637.83
2018-11-10T06:04:26.943Z,97640.44
2018-11-10T06:06:55.410Z,97645.25
2018-11-10T06:09:23.351Z,97650.13
2018-11-10T06:11:51.395Z,97650.33
2018-11-10T06:14:19.757Z,97646.73
2018-11-10T06:16:48.198Z,97647.05
2018-11-10T06:19:15.998Z,97659.63
2018-11-10T06:21:43.811Z,97662.13
2018-11-10T06:24:11.565Z,97654.27
2018-11-10T06:26:39.300Z,97651.81
2018-11-10T06:29:07.592Z,97649.83
2018-11-10T06:31:35.360Z,97652.25
2018-11-10T06:34:04.239Z,97651.27
2018-11-10T06:36:31.984Z,97652.48
2018-11-10T06:38:59.709Z,97646.31
2018-11-10T06:41:27.538Z,97648.73
2018-11-10T06:43:55.627Z,97655.40
2018-11-10T06:46:25.487Z,97654.11
2018-11-10T06:48:53.289Z,97653.50
2018-11-10T06:51:21.822Z,97652.72
2018-11-10T06:53:50.195Z,97645.23
2018-11-10T06:56:19.321Z,97652.19
2018-11-10T06:58:48.494Z,97655.41
2018-11-10T07:01:16.273Z,97650.70
2018-11-10T07:03:44.073Z,97647.05
2018-11-10T07:06:11.923Z,97646.69
2018-11-10T07:08:40.733Z,97667.27
2018-11-10T07:11:09.472Z,97664.59
2018-11-10T07:13:38.400Z,97670.83
2018-11-10T07:16:07.402Z,97677.56
2018-11-10T07:21:42.345Z,97684.97
2018-11-10T07:24:35.476Z,97684.87
2018-11-10T07:27:08.391Z,97682.73
2018-11-10T07:29:39.386Z,97674.44
2018-11-10T07:32:14.038Z,97680.55
2018-11-10T07:34:42.859Z,97677.30
2018-11-10T07:37:11.606Z,97686.14
2018-11-10T07:39:40.180Z,97680.16
2018-11-10T07:42:08.822Z,97670.73
2018-11-10T07:44:37.670Z,97672.60
2018-11-10T07:47:24.521Z,97671.88
2018-11-10T07:49:53.237Z,97674.79
2018-11-10T07:52:21.912Z,97671.89
2018-11-10T07:57:44.317Z,97667.94
2018-11-10T08:00:14.711Z,97673.39
2018-11-10T08:02:43.473Z,97673.09
2018-11-10T08:05:12.620Z,97678.92
2018-11-10T08:07:42.047Z,97676.77
2018-11-10T08:10:11.323Z,97675.36
2018-11-10T08:12:42.776Z,97688.27
2018-11-10T08:15:13.605Z,97687.95
2018-11-10T08:17:42.535Z,97691.31
2018-11-10T08:20:11.916Z,97703.27
2018-11-10T08:22:40.686Z,97711.84
2018-11-10T08:25:11.712Z,97716.09
2018-11-10T08:27:41.179Z,97708.77
2018-11-10T08:30:12.465Z,97711.67
2018-11-10T08:32:41.744Z,97694.22
2018-11-10T08:41:07.510Z,97703.72
2018-11-10T08:43:36.591Z,97699.95
2018-11-10T08:46:05.651Z,97691.53
2018-11-10T08:48:34.461Z,97681.31
2018-11-10T08:51:03.376Z,97683.51
2018-11-10T08:53:40.847Z,97677.47
2018-11-10T08:56:09.595Z,97680.02
2018-11-10T08:58:38.131Z,97683.27
2018-11-10T09:01:06.845Z,97686.48
2018-11-10T09:03:35.843Z,97688.04
2018-11-10T09:06:05.605Z,97685.17
2018-11-10T09:08:36.972Z,97689.39
2018-11-10T09:11:12.300Z,97697.81
2018-11-10T09:13:42.289Z,97703.83
2018-11-10T09:16:11.130Z,97694.13
2018-11-10T09:18:39.718Z,97695.69
2018-11-10T09:21:08.533Z,97683.66
2018-11-10T09:23:37.103Z,97689.23
2018-11-10T09:26:06.047Z,97679.86
2018-11-10T09:28:34.688Z,97677.70
2018-11-10T09:31:03.394Z,97677.37
2018-11-10T09:33:36.068Z,97675.47
2018-11-10T09:36:04.708Z,97672.48
2018-11-10T09:38:34.282Z,97675.69
2018-11-10T09:41:04.111Z,97665.20
2018-11-10T09:43:32.840Z,97669.89
2018-11-10T09:46:01.478Z,97665.52
2018-11-10T09:48:30.264Z,97668.77
2018-11-10T09:51:07.164Z,97675.08
2018-11-10T09:53:35.916Z,97682.28
2018-11-10T09:56:04.579Z,97675.23
2018-11-10T09:58:34.009Z,97662.23
2018-11-10T10:01:04.335Z,97667.25
2018-11-10T10:03:33.328Z,97663.93
2018-11-10T10:06:02.740Z,97660.53
2018-11-10T10:08:31.691Z,97662.11
2018-11-10T10:11:00.587Z,97659.08
2018-11-10T10:13:32.906Z,97655.44
2018-11-10T10:16:01.692Z,97647.10
2018-11-10T10:18:30.602Z,97644.95
2018-11-10T10:20:59.317Z,97636.45
2018-11-10T10:23:28.137Z,97644.23
2018-11-10T10:26:07.314Z,97641.52
2018-11-10T10:28:41.744Z,97638.78
2018-11-10T10:34:15.174Z,97648.01
2018-11-10T10:36:43.805Z,97625.54
2018-11-10T10:42:11.911Z,97612.99
2018-11-10T10:44:45.578Z,97614.97
2018-11-10T10:49:58.466Z,97621.23
2018-11-10T10:52:40.521Z,97610.50
2018-11-10T10:55:17.265Z,97608.31
2018-11-10T10:57:49.317Z,97596.05
2018-11-10T11:00:28.069Z,97595.68
2018-11-10T11:03:05.597Z,97593.22
2018-11-10T11:05:44.957Z,97587.00
2018-11-10T11:08:19.966Z,97585.00
2018-11-10T11:10:52.239Z,97581.42
2018-11-10T11:13:24.672Z,97581.80
2018-11-10T11:15:56.008Z,97580.98
2018-11-10T11:18:25.182Z,97574.31
2018-11-10T11:20:53.977Z,97573.84
2018-11-10T11:23:24.652Z,97567.70
2018-11-10T11:25:53.507Z,97571.75
2018-11-10T11:28:22.445Z,97569.79
2018-11-10T11:30:51.019Z,97571.75
2018-11-10T11:33:21.637Z,97566.34
2018-11-10T11:35:52.792Z,97566.75
2018-11-10T11:38:33.381Z,97564.90
2018-11-10T11:41:12.750Z,97564.93
2018-11-10T11:43:42.330Z,97559.83
2018-11-10T11:46:12.031Z,97554.30
2018-11-10T11:48:40.620Z,97553.00
2018-11-10T11:51:09.195Z,97547.95
2018-11-10T11:53:38.926Z,97552.31
2018-11-10T11:56:07.585Z,97550.95
2018-11-10T11:58:48.441Z,97553.16
2018-11-10T12:01:17.212Z,97558.34
2018-11-10T12:03:45.976Z,97557.17
2018-11-10T12:06:14.611Z,97554.70
2018-11-10T12:08:43.354Z,97553.18
2018-11-10T12:11:12.069Z,97550.50
2018-11-10T12:13:42.672Z,97542.62
2018-11-10T12:16:11.498Z,97542.36
2018-11-10T12:18:40.614Z,97539.77
2018-11-10T12:21:10.308Z,97538.81
2018-11-10T12:23:39.026Z,97535.97
2018-11-10T12:26:07.819Z,97531.95
2018-11-10T12:34:22.112Z,97532.81
2018-11-10T12:36:54.134Z,97533.54
2018-11-10T12:39:22.802Z,97519.13
2018-11-10T12:41:51.487Z,97526.56
2018-11-10T12:44:20.149Z,97527.61
2018-11-10T12:46:48.880Z,97527.36
2018-11-10T12:49:17.542Z,97519.78
2018-11-10T12:51:46.128Z,97520.96
2018-11-10T12:54:14.735Z,97525.75
2018-11-10T12:56:43.429Z,97530.89
2018-11-10T12:59:16.060Z,97528.55
2018-11-10T13:01:44.690Z,97523.23
2018-11-10T13:04:14.371Z,97529.47
2018-11-10T13:06:43.126Z,97520.42
2018-11-10T13:09:13.987Z,97518.82
2018-11-10T13:11:43.653Z,97517.72
2018-11-10T13:14:12.739Z,97505.66
2018-11-10T13:16:42.377Z,97513.47
2018-11-10T13:19:12.234Z,97513.77
2018-11-10T13:21:51.593Z,97512.90
2018-11-10T13:24:20.663Z,97518.44
2018-11-10T13:26:50.759Z,97517.63
2018-11-10T13:29:19.822Z,97519.95
2018-11-10T13:31:51.341Z,97519.16
2018-11-10T13:34:36.177Z,97524.56
2018-11-10T13:37:06.827Z,97523.53
2018-11-10T13:39:52.766Z,97529.02
2018-11-10T13:42:25.493Z,97525.71
2018-11-10T13:45:35.506Z,97523.97
2018-11-10T13:51:12.354Z,97538.39
2018-11-10T13:53:45.678Z,97533.81
2018-11-10T13:56:16.584Z,97543.85
2018-11-10T13:58:46.276Z,97545.03
2018-11-10T14:01:15.550Z,97550.87
2018-11-10T14:03:46.846Z,97549.00
2018-11-10T14:06:18.452Z,97552.36
2018-11-10T14:08:47.719Z,97549.64
2018-11-10T14:11:16.851Z,97549.34
2018-11-10T14:13:52.922Z,97549.81
2018-11-10T14:16:22.039Z,97552.01
2018-11-10T14:27:29.840Z,97555.73
2018-11-10T14:30:01.197Z,97555.44
2018-11-10T14:32:30.541Z,97550.42
2018-11-10T14:34:59.674Z,97555.14
2018-11-10T14:37:30.173Z,97556.09
2018-11-10T14:39:59.479Z,97550.08
2018-11-10T14:42:29.115Z,97557.90
2018-11-10T14:45:05.560Z,97558.62
2018-11-10T14:47:35.713Z,97559.65
2018-11-10T14:50:11.588Z,97551.75
2018-11-10T14:52:40.965Z,97556.88
2018-11-10T14:55:11.096Z,97540.84
2018-11-10T14:57:40.329Z,97541.55
2018-11-10T15:00:11.612Z,97552.49
2018-11-10T15:02:42.256Z,97553.83
2018-11-10T15:05:12.340Z,97560.28
2018-11-10T15:07:42.094Z,97560.73
2018-11-10T15:10:12.812Z,97567.55
2018-11-10T15:12:42.235Z,97563.52
2018-11-10T15:15:20.005Z,97564.82
2018-11-10T15:20:53.899Z,97566.39
2018-11-10T15:23:22.879Z,97570.84
2018-11-10T15:25:51.561Z,97571.29
2018-11-10T15:28:20.484Z,97563.88
2018-11-10T15:30:49.387Z,97567.35
2018-11-10T15:33:25.795Z,97574.43
2018-11-10T15:35:54.585Z,97565.77
2018-11-10T15:38:28.013Z,97562.28
2018-11-10T15:41:00.715Z,97564.67
2018-11-10T15:43:29.535Z,97574.44
2018-11-10T15:46:03.552Z,97570.13
2018-11-10T15:48:37.071Z,97560.92
2018-11-10T15:51:14.787Z,97561.65
2018-11-10T15:54:24.162Z,97561.61
2018-11-10T15:56:53.618Z,97562.49
2018-11-10T15:59:22.663Z,97554.87
2018-11-10T16:02:09.218Z,97553.54
2018-11-10T16:04:40.523Z,97549.02
2018-11-10T16:07:11.736Z,97555.95
2018-11-10T16:09:42.079Z,97564.83
2018-11-10T16:12:13.724Z,97577.24
2018-11-10T16:14:43.730Z,97573.94
2018-11-10T16:17:20.217Z,97572.33
2018-11-10T16:19:54.262Z,97573.89
2018-11-10T16:22:26.900Z,97571.22
2018-11-10T16:25:11.018Z,97570.59
2018-11-10T16:27:40.534Z,97572.75
2018-11-10T16:30:11.799Z,97568.30
2018-11-10T16:32:45.774Z,97578.78
2018-11-10T16:35:20.452Z,97575.38
2018-11-10T16:37:51.561Z,97572.45
2018-11-10T16:40:21.670Z,97573.22
2018-11-10T16:42:52.222Z,97577.52
2018-11-10T16:45:23.241Z,97577.25
2018-11-10T16:48:06.166Z,97577.77
2018-11-10T16:53:50.489Z,97575.14
2018-11-10T16:56:19.335Z,97577.44
2018-11-10T16:58:48.250Z,97578.11
2018-11-10T17:01:17.555Z,97580.21
2018-11-10T17:03:46.501Z,97578.91
2018-11-10T17:06:16.605Z,97581.92
2018-11-10T17:08:46.537Z,97577.94
2018-11-10T17:11:15.986Z,97575.61
2018-11-10T17:13:45.268Z,97576.61
2018-11-10T17:16:15.051Z,97577.90
2018-11-10T17:18:44.389Z,97576.76
2018-11-10T17:21:13.405Z,97584.31
2018-11-10T17:23:43.063Z,97588.19
2018-11-10T17:26:11.810Z,97591.31
2018-11-10T17:28:40.736Z,97593.61
2018-11-10T17:31:09.481Z,97585.97
2018-11-10T17:33:38.946Z,97588.02
2018-11-10T17:36:08.031Z,97587.84
2018-11-10T17:38:37.842Z,97590.53
2018-11-10T17:41:06.428Z,97587.70
2018-11-10T17:43:34.934Z,97593.69
2018-11-10T17:46:03.970Z,97598.97
2018-11-10T17:48:33.276Z,97605.56
2018-11-10T17:51:02.071Z,97607.47
2018-11-10T17:53:30.826Z,97606.98
2018-11-10T17:55:59.463Z,97600.81
2018-11-10T17:58:28.264Z,97602.98
2018-11-10T18:00:56.817Z,97596.58
2018-11-10T18:03:25.388Z,97604.73
2018-11-10T18:05:54.251Z,97598.15
2018-11-10T18:08:22.984Z,97598.72
2018-11-10T18:10:51.545Z,97603.13
2018-11-10T18:13:21.145Z,97607.38
2018-11-10T18:15:49.992Z,97611.25
2018-11-10T18:18:18.821Z,97609.73
2018-11-10T18:20:47.500Z,97606.21
2018-11-10T18:23:16.104Z,97616.91
2018-11-10T18:25:44.765Z,97612.41
2018-11-10T18:28:13.803Z,97623.59
2018-11-10T18:30:42.353Z,97613.39
2018-11-10T18:33:10.963Z,97617.38
2018-11-10T18:35:39.617Z,97614.90
2018-11-10T18:38:08.224Z,97620.20
2018-11-10T18:40:36.890Z,97619.19
2018-11-10T18:43:05.616Z,97623.59
2018-11-10T18:45:34.810Z,97628.04
2018-11-10T18:48:03.719Z,97630.32
2018-11-10T18:50:32.346Z,97635.16
2018-11-10T18:53:03.034Z,97633.41
2018-11-10T18:55:32.429Z,97623.95
2018-11-10T18:58:01.275Z,97635.70
2018-11-10T19:00:30.021Z,97634.31
2018-11-10T19:02:58.681Z,97626.75
2018-11-10T19:05:28.517Z,97627.56
2018-11-10T19:08:00.670Z,97626.34
2018-11-10T19:10:29.713Z,97623.84
2018-11-10T19:12:58.802Z,97623.26
2018-11-10T19:15:28.963Z,97618.75
2018-11-10T19:17:58.174Z,97620.70
2018-11-10T19:20:27.528Z,97619.42
2018-11-10T19:22:57.396Z,97620.78
2018-11-10T19:25:26.670Z,97626.58
2018-11-10T19:27:56.014Z,97623.48
2018-11-10T19:30:25.266Z,97622.92
2018-11-10T19:32:54.870Z,97624.01
2018-11-10T19:35:24.590Z,97621.42
2018-11-10T19:37:53.277Z,97620.27
2018-11-10T19:40:21.770Z,97614.88
2018-11-10T19:42:52.206Z,97605.84
2018-11-10T19:45:21.441Z,97617.24
2018-11-10T19:47:51.991Z,97610.52
2018-11-10T19:50:21.208Z,97618.99
2018-11-10T19:52:51.288Z,97615.69
2018-11-10T19:55:20.600Z,97615.45
2018-11-10T19:57:50.386Z,97610.86
2018-11-10T20:00:20.793Z,97621.87
2018-11-10T20:02:49.560Z,97620.84
2018-11-10T20:05:20.495Z,97619.91
2018-11-10T20:07:49.186Z,97617.48
2018-11-10T20:10:18.021Z,97618.72
2018-11-10T20:12:47.113Z,97617.11
2018-11-10T20:15:16.619Z,97616.36
2018-11-10T20:17:45.666Z,97616.91
2018-11-10T20:20:15.872Z,97623.74
2018-11-10T20:22:44.611Z,97630.83
2018-11-10T20:25:14.680Z,97626.84
2018-11-10T20:27:44.281Z,97623.30
2018-11-10T20:30:19.081Z,97615.20
2018-11-10T20:32:47.817Z,97623.91
2018-11-10T20:35:16.546Z,97616.93
2018-11-10T20:37:45.803Z,97626.80
2018-11-10T20:40:17.859Z,97621.76
2018-11-10T20:42:47.030Z,97621.45
2018-11-10T20:45:18.576Z,97618.84
2018-11-10T20:47:47.257Z,97617.30
2018-11-10T20:50:16.321Z,97612.70
2018-11-10T20:52:45.052Z,97609.06
2018-11-10T20:55:14.075Z,97615.26
2018-11-10T20:57:42.849Z,97608.88
2018-11-10T21:00:16.580Z,97608.31
2018-11-10T21:02:45.613Z,97608.25
2018-11-10T21:05:14.906Z,97607.03
2018-11-10T21:07:45.415Z,97613.50
2018-11-10T21:10:16.270Z,97611.34
2018-11-10T21:12:45.617Z,97614.94
2018-11-10T21:15:15.954Z,97608.16
2018-11-10T21:17:44.810Z,97610.80
2018-11-10T21:20:14.065Z,97617.92
2018-11-10T21:22:42.872Z,97611.44
2018-11-10T21:25:14.192Z,97610.52
2018-11-10T21:27:43.407Z,97617.52
2018-11-10T21:30:13.465Z,97617.52
2018-11-10T21:32:42.437Z,97625.61
2018-11-10T21:35:11.205Z,97617.38
2018-11-10T21:37:39.756Z,97614.19
2018-11-10T21:40:10.787Z,97616.72
2018-11-10T21:42:39.565Z,97621.97
2018-11-10T21:45:09.451Z,97617.04
2018-11-10T21:47:38.114Z,97614.76
2018-11-10T21:50:09.401Z,97631.63
2018-11-10T21:52:40.892Z,97632.33
2018-11-10T21:55:14.746Z,97626.99
2018-11-10T21:57:44.560Z,97627.09
2018-11-10T22:00:15.188Z,97635.34
2018-11-10T22:02:44.493Z,97638.62
2018-11-10T22:05:14.106Z,97638.11
2018-11-10T22:07:43.184Z,97633.38
2018-11-10T22:10:13.759Z,97629.56
2018-11-10T22:12:42.564Z,97625.38
2018-11-10T22:15:14.927Z,97619.55
2018-11-10T22:17:44.855Z,97614.87
2018-11-10T22:20:16.394Z,97627.64
2018-11-10T22:22:44.979Z,97623.77
2018-11-10T22:25:13.959Z,97630.42
2018-11-10T22:27:44.249Z,97632.34
2018-11-10T22:30:14.943Z,97635.34
2018-11-10T22:32:44.158Z,97639.19
2018-11-10T22:35:13.076Z,97638.92
2018-11-10T22:37:41.856Z,97648.47
2018-11-10T22:40:12.494Z,97653.05
2018-11-10T22:42:42.652Z,97656.79
2018-11-10T22:45:13.525Z,97660.75
2018-11-10T22:47:42.597Z,97653.15
2018-11-10T22:50:14.520Z,97663.38
2018-11-10T22:52:44.398Z,97665.44
2018-11-10T22:55:12.987Z,97662.66
2018-11-10T22:57:42.817Z,97664.70
2018-11-10T23:00:19.807Z,97670.00
2018-11-10T23:02:53.161Z,97677.79
2018-11-10T23:05:26.371Z,97672.59
2018-11-10T23:07:58.728Z,97667.37
2018-11-10T23:10:27.278Z,97672.80
2018-11-10T23:12:59.582Z,97671.88
2018-11-10T23:15:28.307Z,97688.31
2018-11-10T23:18:00.086Z,97682.51
2018-11-10T23:20:28.835Z,97674.14
2018-11-10T23:23:01.657Z,97680.78
2018-11-10T23:25:33.238Z,97684.65
2018-11-10T23:28:05.683Z,97684.80
2018-11-10T23:30:35.486Z,97682.51
2018-11-10T23:33:04.061Z,97688.35
2018-11-10T23:35:32.588Z,97689.12
2018-11-10T23:38:01.155Z,97689.30
2018-11-10T23:40:30.350Z,97689.34
2018-11-10T23:42:59.027Z,97699.87
2018-11-10T23:45:27.883Z,97708.59
2018-11-10T23:47:56.528Z,97720.47
2018-11-10T23:50:30.165Z,97720.56
2018-11-10T23:53:02.110Z,97726.68
2018-11-10T23:55:34.587Z,97724.94
2018-11-10T23:58:09.740Z,97727.05
